Time;durP1;ratioP1;P1;durP2;ratioP2;P2;SDS_P1;SDS_P2;PMS_P1;PMS_P2;Temp;Humidity;BMP_temperature;BMP_pressure;BME280_temperature;BME280_humidity;BME280_pressure;Samples;Min_cycle;Max_cycle;Signal;HPM_P1;HPM_P2
2022/11/14 00:02:02;;;;;;;;;;;;;;;15.85;74.83;100720.66;5034721;28;978;-64
2022/11/14 00:04:27;;;;;;;;;;;;;;;15.83;74.35;100714.63;5035378;28;1952;-64
2022/11/14 00:06:52;;;;;;;;;;;;;;;15.81;74.70;100714.97;5035110;28;840;-64
2022/11/14 00:09:17;;;;;;;;;;;;;;;15.82;74.55;100713.03;5035146;28;1185;-64
2022/11/14 00:11:43;;;;;;;;;;;;;;;15.82;74.82;100726.81;5035272;28;1030;-64
2022/11/14 00:14:08;;;;;;;;;;;;;;;15.81;74.55;100717.72;5035209;28;809;-64
2022/11/14 00:16:33;;;;;;;;;;;;;;;15.80;74.37;100715.28;5034929;28;967;-64
2022/11/14 00:18:59;;;;;;;;;;;;;;;15.79;74.76;100719.97;5035018;28;1274;-64
2022/11/14 00:21:24;;;;;;;;;;;;;;;15.77;74.66;100711.19;5035111;28;785;-64
2022/11/14 00:23:49;;;;;;;;;;;;;;;15.79;74.58;100710.88;5034877;28;1894;-64
2022/11/14 00:26:14;;;;;;;;;;;;;;;15.79;74.77;100713.63;5034698;28;991;-64
2022/11/14 00:28:39;;;;;;;;;;;;;;;15.79;74.54;100714.44;5034950;28;1199;-64
2022/11/14 00:31:04;;;;;;;;;;;;;;;15.76;74.79;100706.78;5034897;28;979;-64
2022/11/14 00:33:30;;;;;;;;;;;;;;;15.77;74.62;100716.69;5034931;28;1051;-64
2022/11/14 00:35:55;;;;;;;;;;;;;;;15.75;74.62;100709.84;5034478;28;1010;-64
2022/11/14 00:38:21;;;;;;;;;;;;;;;15.76;74.47;100709.53;5034729;28;1275;-64
2022/11/14 00:40:46;;;;;;;;;;;;;;;15.75;74.39;100709.84;5034643;28;838;-64
2022/11/14 00:43:11;;;;;;;;;;;;;;;15.75;74.44;100702.38;5034653;28;988;-64
2022/11/14 00:45:36;;;;;;;;;;;;;;;15.73;74.39;100706.59;5034453;28;1894;-64
2022/11/14 00:48:01;;;;;;;;;;;;;;;15.70;74.83;100707.22;5034223;28;1208;-64
2022/11/14 00:50:26;;;;;;;;;;;;;;;15.70;74.49;100707.22;5034424;28;1023;-64
2022/11/14 00:52:51;;;;;;;;;;;;;;;15.69;74.38;100703.63;5034374;28;987;-64
2022/11/14 00:55:17;;;;;;;;;;;;;;;15.70;74.46;100701.69;5034491;28;769;-64
2022/11/14 00:57:42;;;;;;;;;;;;;;;15.68;74.54;100698.41;5033934;28;1209;-64
2022/11/14 01:00:07;;;;;;;;;;;;;;;15.69;74.45;100697.28;5034309;28;1034;-64
2022/11/14 01:02:33;;;;;;;;;;;;;;;15.65;74.54;100685.25;5034061;28;809;-64
2022/11/14 01:04:58;;;;;;;;;;;;;;;15.67;74.64;100691.25;5034115;28;1893;-64
2022/11/14 01:07:23;;;;;;;;;;;;;;;15.67;74.56;100682.97;5033636;28;1303;-64
2022/11/14 01:09:48;;;;;;;;;;;;;;;15.66;74.13;100684.91;5034090;28;872;-64
2022/11/14 01:12:13;;;;;;;;;;;;;;;15.67;74.35;100681.03;5033810;28;976;-64
2022/11/14 01:14:39;;;;;;;;;;;;;;;15.65;74.44;100671.47;5032993;28;1015;-64
2022/11/14 01:17:04;;;;;;;;;;;;;;;15.66;74.22;100679.41;5033681;28;1213;-64
2022/11/14 01:19:30;;;;;;;;;;;;;;;15.64;74.44;100676.16;5033887;28;801;-64
2022/11/14 01:21:55;;;;;;;;;;;;;;;15.64;74.58;100661.53;5033934;28;1039;-64
2022/11/14 01:24:20;;;;;;;;;;;;;;;15.64;74.23;100667.88;5033704;28;1902;-64
2022/11/14 01:26:45;;;;;;;;;;;;;;;15.64;74.14;100667.06;5033569;28;980;-64
2022/11/14 01:29:10;;;;;;;;;;;;;;;15.64;74.29;100662.38;5033594;28;1187;-64
2022/11/14 01:31:35;;;;;;;;;;;;;;;15.64;74.34;100661.53;5033768;28;1034;-64
2022/11/14 01:34:00;;;;;;;;;;;;;;;15.61;74.39;100662.97;5033667;28;1050;-64
2022/11/14 01:36:26;;;;;;;;;;;;;;;15.62;74.38;100666.56;5033402;28;812;-64
2022/11/14 01:38:52;;;;;;;;;;;;;;;15.61;74.37;100651.94;5032155;28;1286;-64
2022/11/14 01:41:17;;;;;;;;;;;;;;;15.61;74.01;100656.63;5033703;28;838;-64
2022/11/14 01:43:42;;;;;;;;;;;;;;;15.61;74.18;100654.69;5033517;28;992;-64
2022/11/14 01:46:28;;;;;;;;;;;;;;;15.61;74.43;100646.41;5033214;28;1953;-64
2022/11/14 01:48:59;;;;;;;;;;;;;;;15.57;74.43;100639.88;5033044;28;1838;-64
2022/11/14 01:51:27;;;;;;;;;;;;;;;15.57;74.24;100637.13;5033414;28;1014;-64
2022/11/14 01:53:53;;;;;;;;;;;;;;;15.59;74.22;100636.81;5033510;28;848;-64
2022/11/14 01:56:22;;;;;;;;;;;;;;;15.59;74.17;100636.81;5033273;28;994;-64
2022/11/14 01:59:00;;;;;;;;;;;;;;;15.60;74.18;100630.16;5033271;28;1341;-64
2022/11/14 02:01:27;;;;;;;;;;;;;;;15.60;74.32;100621.88;5033336;28;801;-64
2022/11/14 02:03:54;;;;;;;;;;;;;;;15.57;74.20;100619.78;5033141;28;1890;-64
2022/11/14 02:06:21;;;;;;;;;;;;;;;15.57;74.26;100614.25;5032953;28;1004;-64
2022/11/14 02:08:47;;;;;;;;;;;;;;;15.55;74.39;100624.78;5033009;28;1202;-64
2022/11/14 02:11:12;;;;;;;;;;;;;;;15.55;74.05;100617.31;5033364;28;1078;-64
2022/11/14 02:13:38;;;;;;;;;;;;;;;15.55;74.12;100617.31;5033232;28;868;-64
2022/11/14 02:16:03;;;;;;;;;;;;;;;15.54;74.06;100606.59;5032849;28;1058;-64
2022/11/14 02:18:28;;;;;;;;;;;;;;;15.52;74.08;100606.84;5033028;28;1228;-64
2022/11/14 02:20:53;;;;;;;;;;;;;;;15.51;74.30;100606.03;5033090;28;1057;-64
2022/11/14 02:23:26;;;;;;;;;;;;;;;15.54;73.80;100607.41;5033111;28;987;-64
2022/11/14 02:25:51;;;;;;;;;;;;;;;15.50;74.32;100607.16;5035099;28;1918;-65
2022/11/14 02:28:19;;;;;;;;;;;;;;;15.51;74.34;100600.53;5043715;28;1214;-64
2022/11/14 02:30:44;;;;;;;;;;;;;;;15.50;74.08;100603.59;5057030;28;904;-64
2022/11/14 02:33:09;;;;;;;;;;;;;;;15.51;74.31;100605.22;5056917;28;864;-64
2022/11/14 02:35:34;;;;;;;;;;;;;;;15.48;74.40;100601.13;5056943;28;841;-64
2022/11/14 02:38:00;;;;;;;;;;;;;;;15.48;74.42;100598.38;5056488;28;1195;-64
2022/11/14 02:40:25;;;;;;;;;;;;;;;15.49;74.17;100588.16;5057034;28;774;-64
2022/11/14 02:42:50;;;;;;;;;;;;;;;15.47;74.12;100585.75;5056740;28;944;-64
2022/11/14 02:45:15;;;;;;;;;;;;;;;15.47;74.09;100580.22;5056673;28;1969;-64
2022/11/14 02:47:40;;;;;;;;;;;;;;;15.46;73.99;100577.78;5056325;28;1303;-64
2022/11/14 02:50:06;;;;;;;;;;;;;;;15.49;74.32;100572.44;5056627;28;987;-64
2022/11/14 02:52:31;;;;;;;;;;;;;;;15.48;74.08;100572.75;5056746;28;845;-64
2022/11/14 02:54:56;;;;;;;;;;;;;;;15.44;73.77;100569.78;5056574;28;1031;-64
2022/11/14 02:57:21;;;;;;;;;;;;;;;15.46;74.12;100567.56;5056248;28;1283;-64
2022/11/14 02:59:46;;;;;;;;;;;;;;;15.47;74.04;100565.59;5056403;28;945;-64
2022/11/14 03:02:13;;;;;;;;;;;;;;;15.45;74.08;100567.84;5056403;28;1043;-64
2022/11/14 03:04:38;;;;;;;;;;;;;;;15.43;74.08;100565.41;5055138;28;1961;-64
2022/11/14 03:07:03;;;;;;;;;;;;;;;15.42;74.09;100558.25;5056012;28;1313;-64
2022/11/14 03:09:28;;;;;;;;;;;;;;;15.43;74.10;100568.16;5056210;28;875;-64
2022/11/14 03:11:53;;;;;;;;;;;;;;;15.42;74.19;100562.94;5055487;28;905;-64
2022/11/14 03:14:18;;;;;;;;;;;;;;;15.45;74.08;100560.41;5055705;28;999;-64
2022/11/14 03:16:43;;;;;;;;;;;;;;;15.43;73.79;100551.63;5055970;28;856;-64
2022/11/14 03:19:09;;;;;;;;;;;;;;;15.40;73.81;100554.97;5056059;28;1290;-64
2022/11/14 03:21:34;;;;;;;;;;;;;;;15.40;74.39;100554.97;5056210;28;980;-63
2022/11/14 03:23:59;;;;;;;;;;;;;;;15.41;74.25;100550.28;5055963;28;1972;-64
2022/11/14 03:26:24;;;;;;;;;;;;;;;15.40;74.15;100557.75;5055714;28;1030;-64
2022/11/14 03:28:49;;;;;;;;;;;;;;;15.42;74.16;100554.69;5055867;28;1212;-64
2022/11/14 03:31:14;;;;;;;;;;;;;;;15.40;73.98;100545.88;5055974;28;841;-64
2022/11/14 03:33:40;;;;;;;;;;;;;;;15.39;74.26;100542.34;5055936;28;984;-64
2022/11/14 03:36:05;;;;;;;;;;;;;;;15.41;73.90;100544.75;5055145;28;841;-64
2022/11/14 03:38:30;;;;;;;;;;;;;;;15.37;74.10;100541.84;5055207;28;1257;-64
2022/11/14 03:40:57;;;;;;;;;;;;;;;15.39;74.45;100547.88;5055717;28;983;-64
2022/11/14 03:43:22;;;;;;;;;;;;;;;15.37;74.09;100536.31;5055780;28;1043;-64
2022/11/14 03:45:47;;;;;;;;;;;;;;;15.39;73.44;100544.28;5055404;28;1897;-64
2022/11/14 03:48:12;;;;;;;;;;;;;;;15.38;73.86;100542.66;5055391;28;1192;-64
2022/11/14 03:50:38;;;;;;;;;;;;;;;15.40;73.79;100540.38;5053831;28;1685;-64
2022/11/14 03:53:04;;;;;;;;;;;;;;;15.39;73.65;100534.06;5055616;28;963;-64
2022/11/14 03:55:29;;;;;;;;;;;;;;;15.39;74.00;100527.75;5055516;28;970;-64
2022/11/14 03:57:54;;;;;;;;;;;;;;;15.37;73.69;100527.22;5055020;28;1267;-64
2022/11/14 04:00:19;;;;;;;;;;;;;;;15.36;74.12;100520.06;5055389;28;1002;-64
2022/11/14 04:02:45;;;;;;;;;;;;;;;15.33;73.96;100502.19;5055437;28;875;-64
2022/11/14 04:05:10;;;;;;;;;;;;;;;15.35;73.76;100510.97;5055190;28;1894;-64
2022/11/14 04:07:35;;;;;;;;;;;;;;;15.34;73.46;100508.53;5080416;22;1726;-64
2022/11/14 04:10:00;;;;;;;;;;;;;;;15.35;73.44;100512.94;5055341;28;919;-64
2022/11/14 04:12:25;;;;;;;;;;;;;;;15.34;73.82;100514.03;5055258;28;908;-64
2022/11/14 04:14:50;;;;;;;;;;;;;;;15.32;73.58;100517.09;5055135;28;983;-64
2022/11/14 04:17:16;;;;;;;;;;;;;;;15.31;73.65;100521.00;5054718;28;1307;-64
2022/11/14 04:19:41;;;;;;;;;;;;;;;15.30;73.44;100513.88;5054996;28;816;-64
2022/11/14 04:22:06;;;;;;;;;;;;;;;15.32;73.99;100506.06;5054960;28;1049;-64
2022/11/14 04:24:31;;;;;;;;;;;;;;;15.29;73.67;100503.97;5054920;28;1914;-65
2022/11/14 04:26:56;;;;;;;;;;;;;;;15.28;74.01;100496.81;5054661;28;999;-64
2022/11/14 04:29:22;;;;;;;;;;;;;;;15.31;73.99;100498.16;5054884;28;1252;-64
2022/11/14 04:31:47;;;;;;;;;;;;;;;15.28;74.14;100488.53;5054727;28;987;-64
2022/11/14 04:34:12;;;;;;;;;;;;;;;15.28;74.01;100487.72;5054731;28;979;-64
2022/11/14 04:36:37;;;;;;;;;;;;;;;15.29;73.85;100490.19;5054685;28;852;-64
2022/11/14 04:39:02;;;;;;;;;;;;;;;15.30;73.74;100494.56;5054677;28;1279;-64
2022/11/14 04:41:27;;;;;;;;;;;;;;;15.31;73.72;100493.41;5054577;28;853;-64
2022/11/14 04:43:53;;;;;;;;;;;;;;;15.31;73.88;100487.13;5054554;28;1042;-64
2022/11/14 04:46:18;;;;;;;;;;;;;;;15.28;73.88;100485.78;5054074;28;1957;-64
2022/11/14 04:48:43;;;;;;;;;;;;;;;15.27;73.70;100480.56;5054120;28;1144;-64
2022/11/14 04:51:08;;;;;;;;;;;;;;;15.27;73.98;100477.81;5054496;28;741;-63
2022/11/14 04:53:33;;;;;;;;;;;;;;;15.24;73.63;100487.53;5054318;28;900;-63
2022/11/14 04:55:58;;;;;;;;;;;;;;;15.24;73.79;100482.00;5054052;28;742;-63
2022/11/14 04:58:24;;;;;;;;;;;;;;;15.25;73.92;100478.13;5052837;28;1284;-64
2022/11/14 05:00:49;;;;;;;;;;;;;;;15.24;73.49;100481.19;5054216;28;992;-64
2022/11/14 05:03:14;;;;;;;;;;;;;;;15.23;73.63;100474.84;5054143;28;793;-63
2022/11/14 05:05:39;;;;;;;;;;;;;;;15.22;73.76;100476.00;5054000;28;1898;-63
2022/11/14 05:08:04;;;;;;;;;;;;;;;15.21;73.50;100468.88;5053699;28;1208;-64
2022/11/14 05:10:29;;;;;;;;;;;;;;;15.21;73.58;100466.09;5054143;28;896;-64
2022/11/14 05:12:55;;;;;;;;;;;;;;;15.22;73.80;100461.41;5054137;28;864;-64
2022/11/14 05:15:20;;;;;;;;;;;;;;;15.20;73.69;100464.47;5053940;28;857;-64
2022/11/14 05:17:45;;;;;;;;;;;;;;;15.17;73.96;100456.00;5053973;28;1213;-64
2022/11/14 05:20:10;;;;;;;;;;;;;;;15.23;73.94;100457.50;5053885;28;991;-64
2022/11/14 05:22:35;;;;;;;;;;;;;;;15.25;73.82;100458.81;5053935;28;864;-65
2022/11/14 05:25:01;;;;;;;;;;;;;;;15.24;73.58;100451.66;5053952;28;1898;-64
2022/11/14 05:27:27;;;;;;;;;;;;;;;15.21;73.44;100457.84;5053631;28;1326;-64
2022/11/14 05:29:54;;;;;;;;;;;;;;;15.21;73.55;100444.03;5053723;28;904;-64
2022/11/14 05:32:19;;;;;;;;;;;;;;;15.18;73.95;100447.41;5053660;28;876;-64
2022/11/14 05:34:44;;;;;;;;;;;;;;;15.15;74.24;100459.06;5053747;28;991;-64
2022/11/14 05:37:09;;;;;;;;;;;;;;;15.14;73.70;100458.25;5053548;28;1211;-64
2022/11/14 05:39:34;;;;;;;;;;;;;;;15.13;74.22;100447.56;5053688;28;869;-64
2022/11/14 05:41:59;;;;;;;;;;;;;;;15.10;73.69;100451.75;5053574;28;762;-64
2022/11/14 05:44:25;;;;;;;;;;;;;;;15.07;73.77;100440.50;5053421;28;1910;-64
2022/11/14 05:46:50;;;;;;;;;;;;;;;15.06;74.16;100436.13;5053273;28;780;-64
2022/11/14 05:49:15;;;;;;;;;;;;;;;15.07;73.61;100443.25;5053346;28;1280;-64
2022/11/14 05:51:40;;;;;;;;;;;;;;;15.04;74.06;100447.47;5053429;28;999;-64
2022/11/14 05:54:06;;;;;;;;;;;;;;;15.05;73.60;100451.06;5053464;28;900;-64
2022/11/14 05:56:31;;;;;;;;;;;;;;;15.04;73.55;100447.47;5052918;28;1063;-64
2022/11/14 05:58:56;;;;;;;;;;;;;;;15.05;73.39;100445.53;5053133;28;1201;-64
2022/11/14 06:01:21;;;;;;;;;;;;;;;15.03;73.58;100434.81;5052711;28;831;-64
2022/11/14 06:03:47;;;;;;;;;;;;;;;15.00;73.58;100440.13;5053242;28;1000;-65
2022/11/14 06:06:13;;;;;;;;;;;;;;;15.04;73.49;100428.19;5052906;28;1964;-65
2022/11/14 06:08:39;;;;;;;;;;;;;;;15.03;73.45;100436.75;5052989;28;1278;-65
2022/11/14 06:11:05;;;;;;;;;;;;;;;15.03;73.54;100428.50;5053139;28;864;-64
2022/11/14 06:13:31;;;;;;;;;;;;;;;15.00;73.79;100420.84;5053007;28;786;-65
2022/11/14 06:16:00;;;;;;;;;;;;;;;15.00;73.46;100426.34;5052816;28;841;-65
2022/11/14 06:18:25;;;;;;;;;;;;;;;14.99;73.79;100430.22;5052834;28;1264;-65
2022/11/14 06:20:50;;;;;;;;;;;;;;;14.97;73.65;100438.78;5053068;28;994;-65
2022/11/14 06:23:16;;;;;;;;;;;;;;;14.97;73.64;100432.50;5052834;28;980;-65
2022/11/14 06:25:41;;;;;;;;;;;;;;;14.96;73.38;100430.88;5053062;28;1963;-64
2022/11/14 06:28:06;;;;;;;;;;;;;;;14.96;73.88;100430.88;5052680;28;1211;-65
2022/11/14 06:30:31;;;;;;;;;;;;;;;14.93;73.32;100425.97;5052906;28;703;-65
2022/11/14 06:32:58;;;;;;;;;;;;;;;14.95;73.28;100423.72;5052906;28;892;-64
2022/11/14 06:35:23;;;;;;;;;;;;;;;14.97;73.28;100427.78;5052876;28;848;-64
2022/11/14 06:37:48;;;;;;;;;;;;;;;14.94;73.86;100430.34;5052706;28;1197;-65
2022/11/14 06:40:13;;;;;;;;;;;;;;;14.95;73.55;100426.47;5052639;28;888;-65
2022/11/14 06:42:38;;;;;;;;;;;;;;;14.95;73.36;100426.47;5052696;28;793;-64
2022/11/14 06:45:04;;;;;;;;;;;;;;;14.95;73.17;100434.75;5052781;28;1901;-64
2022/11/14 06:47:29;;;;;;;;;;;;;;;14.95;73.15;100432.81;5052642;28;1212;-65
2022/11/14 06:49:54;;;;;;;;;;;;;;;14.92;72.98;100430.66;5052865;28;1026;-64
2022/11/14 06:52:19;;;;;;;;;;;;;;;14.91;73.73;100429.03;5052866;28;675;-64
2022/11/14 06:54:44;;;;;;;;;;;;;;;14.91;73.53;100431.78;5052733;28;928;-65
2022/11/14 06:57:10;;;;;;;;;;;;;;;14.89;73.06;100438.72;5052611;28;1295;-65
2022/11/14 06:59:35;;;;;;;;;;;;;;;14.90;73.92;100445.88;5052800;28;987;-64
2022/11/14 07:02:00;;;;;;;;;;;;;;;14.89;73.66;100444.22;5052781;28;958;-64
2022/11/14 07:04:25;;;;;;;;;;;;;;;14.88;73.60;100446.19;5052614;28;1938;-64
2022/11/14 07:06:51;;;;;;;;;;;;;;;14.90;73.57;100432.09;5052349;28;873;-64
2022/11/14 07:09:16;;;;;;;;;;;;;;;14.85;73.37;100441.31;5052439;28;1260;-65
2022/11/14 07:11:44;;;;;;;;;;;;;;;14.88;72.98;100431.59;5054453;28;1043;-64
2022/11/14 07:14:09;;;;;;;;;;;;;;;14.85;73.53;100435.78;5056273;28;837;-64
2022/11/14 07:16:35;;;;;;;;;;;;;;;14.84;73.16;100428.66;5055983;28;809;-64
2022/11/14 07:19:01;;;;;;;;;;;;;;;14.84;72.77;100428.66;5056161;28;1258;-64
2022/11/14 07:21:27;;;;;;;;;;;;;;;14.85;73.81;100433.03;5056197;28;1042;-65
2022/11/14 07:23:52;;;;;;;;;;;;;;;14.82;73.53;100430.88;5054786;28;1330;-64
2022/11/14 07:26:17;;;;;;;;;;;;;;;14.84;73.38;100441.59;5055697;28;1902;-64
2022/11/14 07:28:43;;;;;;;;;;;;;;;14.85;73.50;100421.19;5056088;28;1186;-65
2022/11/14 07:31:11;;;;;;;;;;;;;;;14.87;73.41;100443.75;5056027;28;858;-65
2022/11/14 07:33:37;;;;;;;;;;;;;;;14.83;73.47;100426.19;5056028;28;864;-65
2022/11/14 07:36:02;;;;;;;;;;;;;;;14.80;73.74;100424.88;5055807;28;789;-64
2022/11/14 07:38:29;;;;;;;;;;;;;;;14.80;73.30;100426.84;5055743;28;1189;-64
2022/11/14 07:40:55;;;;;;;;;;;;;;;14.82;73.40;100410.78;5055676;28;988;-64
2022/11/14 07:43:20;;;;;;;;;;;;;;;14.80;73.13;100424.06;5055753;28;786;-64
2022/11/14 07:45:45;;;;;;;;;;;;;;;14.80;73.42;100430.38;5055460;28;1890;-65
2022/11/14 07:48:10;;;;;;;;;;;;;;;14.79;72.71;100437.03;5055582;28;1283;-64
2022/11/14 07:50:36;;;;;;;;;;;;;;;14.80;72.74;100435.09;5055610;28;793;-65
2022/11/14 07:53:01;;;;;;;;;;;;;;;14.80;73.16;100432.34;5055608;28;932;-64
2022/11/14 07:55:26;;;;;;;;;;;;;;;14.81;72.72;100437.53;5055851;28;1041;-64
2022/11/14 07:57:52;;;;;;;;;;;;;;;14.80;73.43;100426.84;5055298;28;1263;-64
2022/11/14 08:00:17;;;;;;;;;;;;;;;14.76;72.83;100430.19;5055480;28;915;-64
2022/11/14 08:02:44;;;;;;;;;;;;;;;14.78;73.07;100438.16;5055527;28;963;-64
2022/11/14 08:05:10;;;;;;;;;;;;;;;14.77;73.47;100434.59;5055360;28;1894;-64
2022/11/14 08:07:35;;;;;;;;;;;;;;;14.77;73.27;100425.50;5054900;28;1275;-64
2022/11/14 08:10:00;;;;;;;;;;;;;;;14.79;73.38;100428.78;5055151;28;1027;-65
2022/11/14 08:12:25;;;;;;;;;;;;;;;14.78;73.45;100424.38;5055267;28;836;-65
2022/11/14 08:14:50;;;;;;;;;;;;;;;14.77;73.38;100417.25;5055250;28;675;-64
2022/11/14 08:17:15;;;;;;;;;;;;;;;14.76;73.28;100426.63;5053471;28;1291;-64
2022/11/14 08:19:40;;;;;;;;;;;;;;;14.75;73.04;100420.31;5055111;28;1077;-64
2022/11/14 08:22:06;;;;;;;;;;;;;;;14.75;73.11;100417.53;5054908;28;713;-65
2022/11/14 08:24:31;;;;;;;;;;;;;;;14.77;73.30;100418.06;5054369;28;1965;-65
2022/11/14 08:26:57;;;;;;;;;;;;;;;14.74;72.81;100412.34;5054680;28;877;-65
2022/11/14 08:29:22;;;;;;;;;;;;;;;14.76;72.76;100424.69;5054842;28;1179;-65
2022/11/14 08:31:47;;;;;;;;;;;;;;;14.76;72.93;100419.19;5054846;28;659;-65
2022/11/14 08:34:12;;;;;;;;;;;;;;;14.75;72.64;100430.50;5053534;28;1313;-65
2022/11/14 08:36:37;;;;;;;;;;;;;;;14.73;72.72;100430.00;5054638;28;733;-64
2022/11/14 08:39:02;;;;;;;;;;;;;;;14.74;73.29;100424.19;5054635;28;1264;-64
2022/11/14 08:41:28;;;;;;;;;;;;;;;14.71;73.32;100416.56;5054750;28;695;-64
2022/11/14 08:43:53;;;;;;;;;;;;;;;14.74;73.32;100418.66;5054619;28;1039;-64
2022/11/14 08:46:18;;;;;;;;;;;;;;;14.73;72.62;100405.19;5054281;28;1947;-64
2022/11/14 08:48:43;;;;;;;;;;;;;;;14.72;72.39;100406.31;5054426;28;1173;-65
2022/11/14 08:51:08;;;;;;;;;;;;;;;14.72;72.79;100407.13;5054498;28;849;-64
2022/11/14 08:53:33;;;;;;;;;;;;;;;14.71;73.02;100402.78;5054330;28;991;-65
2022/11/14 08:55:59;;;;;;;;;;;;;;;14.69;73.31;100399.50;5054216;28;975;-64
2022/11/14 08:58:26;;;;;;;;;;;;;;;14.70;73.03;100397.56;5054686;28;1291;-64
2022/11/14 09:00:51;;;;;;;;;;;;;;;14.70;73.05;100386.53;5054292;28;967;-64
2022/11/14 09:03:16;;;;;;;;;;;;;;;14.72;73.22;100398.88;5054139;28;782;-65
2022/11/14 09:05:41;;;;;;;;;;;;;;;14.73;73.12;100397.75;5053940;28;1886;-64
2022/11/14 09:08:07;;;;;;;;;;;;;;;14.71;72.82;100388.19;5053779;28;1214;-64
2022/11/14 09:10:32;;;;;;;;;;;;;;;14.70;72.40;100384.59;5054002;28;841;-64
2022/11/14 09:12:59;;;;;;;;;;;;;;;14.69;72.97;100376.66;5054129;28;1048;-64
2022/11/14 09:15:25;;;;;;;;;;;;;;;14.70;72.60;100379.09;5054238;28;829;-65
2022/11/14 09:17:54;;;;;;;;;;;;;;;14.71;72.37;100372.47;5053629;28;1206;-64
2022/11/14 09:20:20;;;;;;;;;;;;;;;14.67;73.16;100365.13;5053907;28;876;-64
2022/11/14 09:22:45;;;;;;;;;;;;;;;14.68;73.03;100359.31;5053782;28;1075;-64
2022/11/14 09:25:10;;;;;;;;;;;;;;;14.70;72.93;100354.31;5053789;28;1975;-65
2022/11/14 09:27:36;;;;;;;;;;;;;;;14.70;72.93;100347.97;5053424;28;1289;-64
2022/11/14 09:30:01;;;;;;;;;;;;;;;14.67;73.15;100346.66;5053815;28;971;-65
2022/11/14 09:32:26;;;;;;;;;;;;;;;14.67;73.12;100335.63;5053769;28;797;-65
2022/11/14 09:34:51;;;;;;;;;;;;;;;14.69;73.19;100349.91;5052818;28;976;-65
2022/11/14 09:37:16;;;;;;;;;;;;;;;14.68;72.41;100340.03;5053161;28;1193;-65
2022/11/14 09:39:41;;;;;;;;;;;;;;;14.67;72.89;100334.81;5053435;28;1011;-65
2022/11/14 09:42:25;;;;;;;;;;;;;;;14.67;73.02;100332.06;5053540;28;880;-65
2022/11/14 09:44:50;;;;;;;;;;;;;;;14.68;73.14;100336.44;5053540;28;1953;-64
2022/11/14 09:47:20;;;;;;;;;;;;;;;14.66;72.30;100331.25;5053173;28;1133;-64
2022/11/14 09:49:46;;;;;;;;;;;;;;;14.67;72.36;100335.63;5053432;28;879;-65
2022/11/14 09:52:20;;;;;;;;;;;;;;;14.68;73.13;100328.19;5052654;28;1474;-64
2022/11/14 09:54:50;;;;;;;;;;;;;;;14.67;72.45;100326.56;5053440;28;1039;-64
2022/11/14 09:57:16;;;;;;;;;;;;;;;14.69;72.22;100313.28;5053092;28;1209;-65
2022/11/14 09:59:42;;;;;;;;;;;;;;;14.67;72.75;100310.84;5053279;28;951;-65
2022/11/14 10:02:19;;;;;;;;;;;;;;;14.67;72.59;100315.53;5053365;28;899;-64
2022/11/14 10:04:59;;;;;;;;;;;;;;;14.66;72.52;100311.16;5053215;28;1939;-65
2022/11/14 10:07:49;;;;;;;;;;;;;;;14.66;72.78;100305.63;5052861;28;1189;-65
2022/11/14 10:10:24;;;;;;;;;;;;;;;14.67;73.07;100305.31;5053223;28;975;-65
2022/11/14 10:12:55;;;;;;;;;;;;;;;14.67;72.83;100319.09;5053078;28;975;-65
2022/11/14 10:15:39;;;;;;;;;;;;;;;14.66;72.91;100322.97;5053150;28;911;-65
2022/11/14 10:18:04;;;;;;;;;;;;;;;14.69;72.30;100316.84;5051611;28;1213;-65
2022/11/14 10:20:43;;;;;;;;;;;;;;;14.68;72.78;100306.16;5053102;28;920;-65
2022/11/14 10:23:21;;;;;;;;;;;;;;;14.68;72.19;100308.91;5053023;28;865;-65
2022/11/14 10:25:46;;;;;;;;;;;;;;;14.66;73.01;100305.63;5052834;28;1961;-65
2022/11/14 10:28:20;;;;;;;;;;;;;;;14.65;72.79;100306.75;5051588;28;1758;-65
2022/11/14 10:30:53;;;;;;;;;;;;;;;14.67;72.95;100318.28;5052993;28;908;-65
2022/11/14 10:33:47;;;;;;;;;;;;;;;14.67;73.10;100316.34;5069287;22;3770;-65
2022/11/14 10:36:15;;;;;;;;;;;;;;;14.65;72.84;100313.09;5015548;28;1390;-64
2022/11/14 10:38:43;;;;;;;;;;;;;;;14.67;72.67;100313.59;5052495;28;948;-64
2022/11/14 10:41:08;;;;;;;;;;;;;;;14.68;72.86;100311.66;5052981;28;963;-64
2022/11/14 10:43:38;;;;;;;;;;;;;;;14.66;72.09;100322.97;5052885;28;1331;-65
2022/11/14 10:46:03;;;;;;;;;;;;;;;14.67;72.35;100308.09;5053417;28;1913;-64
2022/11/14 10:48:31;;;;;;;;;;;;;;;14.66;72.80;100313.91;5055607;28;1176;-64
2022/11/14 10:50:56;;;;;;;;;;;;;;;14.67;73.17;100319.09;5056632;28;885;-64
2022/11/14 10:53:34;;;;;;;;;;;;;;;14.67;72.15;100323.78;5056890;28;1602;-64
2022/11/14 10:55:59;;;;;;;;;;;;;;;14.64;72.53;100330.72;5056447;28;995;-64
2022/11/14 10:58:24;;;;;;;;;;;;;;;14.64;72.73;100327.97;5056704;28;975;-64
2022/11/14 11:00:49;;;;;;;;;;;;;;;14.64;72.58;100324.41;5056542;28;889;-64
2022/11/14 11:03:14;;;;;;;;;;;;;;;14.65;72.56;100323.28;5056336;28;1291;-64
2022/11/14 11:05:44;;;;;;;;;;;;;;;14.66;72.74;100324.91;5056405;28;1953;-64
2022/11/14 11:13:48;;;;;;;;;;;;;;;14.66;73.16;100314.72;5056633;28;1252;-65
2022/11/14 11:16:18;;;;;;;;;;;;;;;14.65;72.54;100306.75;5055968;28;967;-64
2022/11/14 11:18:43;;;;;;;;;;;;;;;14.63;72.87;100315.31;5056286;28;1067;-64
2022/11/14 11:21:09;;;;;;;;;;;;;;;14.67;72.99;100312.78;5056129;28;1185;-65
2022/11/14 11:23:36;;;;;;;;;;;;;;;14.67;72.77;100312.78;5056042;28;1218;-64
2022/11/14 11:26:36;;;;;;;;;;;;;;;14.68;72.67;100314.41;5055757;28;1898;-64
2022/11/14 11:29:06;;;;;;;;;;;;;;;14.68;72.47;100308.91;5014051;28;1472;-64
2022/11/14 11:31:49;;;;;;;;;;;;;;;14.67;72.10;100296.25;5048245;28;1062;-64
2022/11/14 11:34:16;;;;;;;;;;;;;;;14.66;72.96;100300.94;5055907;28;864;-64
2022/11/14 11:36:48;;;;;;;;;;;;;;;14.63;72.90;100290.53;5055562;28;959;-64
2022/11/14 11:39:22;;;;;;;;;;;;;;;14.66;72.83;100289.09;5055948;28;995;-64
2022/11/14 11:41:48;;;;;;;;;;;;;;;14.63;72.26;100296.03;5055775;28;1142;-64
2022/11/14 11:44:16;;;;;;;;;;;;;;;14.68;72.69;100297.88;5055743;28;1961;-64
2022/11/14 11:46:41;;;;;;;;;;;;;;;14.68;73.03;100292.38;5055396;28;966;-64
2022/11/14 11:49:12;;;;;;;;;;;;;;;14.70;72.93;100285.44;5055743;28;972;-64
2022/11/14 11:51:39;;;;;;;;;;;;;;;14.68;72.70;100301.44;5055614;28;912;-64
2022/11/14 11:54:24;;;;;;;;;;;;;;;14.70;72.13;100290.13;5055679;28;1178;-64
2022/11/14 11:56:53;;;;;;;;;;;;;;;14.68;72.13;100297.88;5054716;28;1282;-64
2022/11/14 11:59:27;;;;;;;;;;;;;;;14.71;72.63;100289.00;5054914;28;855;-64
2022/11/14 12:01:53;;;;;;;;;;;;;;;14.70;72.11;100279.09;5054205;28;1271;-64
2022/11/14 12:04:18;;;;;;;;;;;;;;;14.70;72.94;100284.63;5055319;28;1886;-64
2022/11/14 12:06:46;;;;;;;;;;;;;;;14.71;72.94;100269.72;5055070;28;1015;-64
2022/11/14 12:09:23;;;;;;;;;;;;;;;14.71;72.29;100272.47;5055326;28;974;-64
2022/11/14 12:11:53;;;;;;;;;;;;;;;14.72;72.12;100261.09;5055108;28;1207;-64
2022/11/14 12:14:21;;;;;;;;;;;;;;;14.73;72.64;100257.22;5055231;28;1062;-64
2022/11/14 12:17:01;;;;;;;;;;;;;;;14.74;72.10;100258.03;5054896;28;838;-64
2022/11/14 12:19:45;;;;;;;;;;;;;;;14.73;72.29;100251.72;5055204;28;870;-64
2022/11/14 12:22:10;;;;;;;;;;;;;;;14.73;72.57;100248.97;5054958;28;1197;-64
2022/11/14 12:24:44;;;;;;;;;;;;;;;14.72;72.30;100252.84;5054844;28;1949;-64
2022/11/14 12:27:12;;;;;;;;;;;;;;;14.73;72.82;100261.94;5054785;28;895;-65
2022/11/14 12:29:56;;;;;;;;;;;;;;;14.73;72.87;100250.91;5054978;28;1011;-64
2022/11/14 12:32:28;;;;;;;;;;;;;;;14.73;72.12;100251.72;5054660;28;1199;-64
2022/11/14 12:34:53;;;;;;;;;;;;;;;14.74;72.20;100245.09;5054639;28;907;-64
2022/11/14 12:37:22;;;;;;;;;;;;;;;14.73;72.60;100246.22;5054670;28;1156;-64
2022/11/14 12:40:13;;;;;;;;;;;;;;;14.71;72.37;100245.72;5054744;28;987;-64
2022/11/14 12:42:44;;;;;;;;;;;;;;;14.73;72.82;100245.41;5052364;28;1290;-65
2022/11/14 12:45:29;;;;;;;;;;;;;;;14.74;73.03;100244.28;5054628;28;1909;-64
2022/11/14 12:48:13;;;;;;;;;;;;;;;14.75;72.10;100232.94;5046875;28;1746;-64
2022/11/14 12:50:40;;;;;;;;;;;;;;;14.74;72.66;100228.56;5054555;28;967;-64
2022/11/14 12:53:34;;;;;;;;;;;;;;;14.76;72.75;100226.31;5054364;28;1221;-64
2022/11/14 12:56:19;;;;;;;;;;;;;;;14.75;72.39;100215.59;5054161;28;1030;-64